sensor_id;sensor_type;location;lat;lon;timestamp;pressure;altitude;pressure_sealevel;temperature;humidity
75065;BME280;63646;49.110;9.140;2022-11-20T00:02:22;98905.22;;;20.86;60.29
75065;BME280;63646;49.110;9.140;2022-11-20T00:04:47;98917.50;;;20.87;60.50
75065;BME280;63646;49.110;9.140;2022-11-20T00:07:12;98909.69;;;20.85;60.01
75065;BME280;63646;49.110;9.140;2022-11-20T00:09:38;98915.00;;;20.85;60.18
75065;BME280;63646;49.110;9.140;2022-11-20T00:12:03;98921.13;;;20.86;60.16
75065;BME280;63646;49.110;9.140;2022-11-20T00:14:29;98920.31;;;20.85;60.20
75065;BME280;63646;49.110;9.140;2022-11-20T00:16:54;98922.97;;;20.85;60.09
75065;BME280;63646;49.110;9.140;2022-11-20T00:19:19;98921.13;;;20.86;59.80
75065;BME280;63646;49.110;9.140;2022-11-20T00:21:45;98918.47;;;20.86;60.11
75065;BME280;63646;49.110;9.140;2022-11-20T00:24:10;98920.31;;;20.85;59.71
75065;BME280;63646;49.110;9.140;2022-11-20T00:26:36;98919.47;;;20.85;59.78
75065;BME280;63646;49.110;9.140;2022-11-20T00:29:02;98920.31;;;20.85;60.20
75065;BME280;63646;49.110;9.140;2022-11-20T00:31:29;98919.31;;;20.86;60.00
75065;BME280;63646;49.110;9.140;2022-11-20T00:33:55;98916.66;;;20.86;59.60
75065;BME280;63646;49.110;9.140;2022-11-20T00:36:22;98912.34;;;20.85;59.67
75065;BME280;63646;49.110;9.140;2022-11-20T00:38:55;98915.81;;;20.86;59.49
75065;BME280;63646;49.110;9.140;2022-11-20T00:41:21;98913.34;;;20.84;59.93
75065;BME280;63646;49.110;9.140;2022-11-20T00:43:46;98907.16;;;20.84;59.62
75065;BME280;63646;49.110;9.140;2022-11-20T00:46:17;98913.34;;;20.84;59.62
75065;BME280;63646;49.110;9.140;2022-11-20T00:48:44;98909.81;;;20.84;59.53
75065;BME280;63646;49.110;9.140;2022-11-20T00:51:12;98914.16;;;20.85;59.76
75065;BME280;63646;49.110;9.140;2022-11-20T00:53:38;98915.31;;;20.82;59.40
75065;BME280;63646;49.110;9.140;2022-11-20T00:56:06;98912.94;;;20.79;59.99
75065;BME280;63646;49.110;9.140;2022-11-20T00:58:37;98920.59;;;20.82;59.52
75065;BME280;63646;49.110;9.140;2022-11-20T01:01:14;98914.47;;;20.82;59.39
75065;BME280;63646;49.110;9.140;2022-11-20T01:03:42;98920.59;;;20.82;59.82
75065;BME280;63646;49.110;9.140;2022-11-20T01:06:15;98915.31;;;20.82;59.64
75065;BME280;63646;49.110;9.140;2022-11-20T01:08:41;98917.13;;;20.82;59.99
75065;BME280;63646;49.110;9.140;2022-11-20T01:11:09;98914.47;;;20.82;59.24
75065;BME280;63646;49.110;9.140;2022-11-20T01:13:36;98918.94;;;20.81;59.26
75065;BME280;63646;49.110;9.140;2022-11-20T01:16:10;98914.47;;;20.82;59.67
75065;BME280;63646;49.110;9.140;2022-11-20T01:18:37;98914.59;;;20.80;59.67
75065;BME280;63646;49.110;9.140;2022-11-20T01:21:09;98914.59;;;20.80;59.25
75065;BME280;63646;49.110;9.140;2022-11-20T01:23:37;98917.44;;;20.79;59.47
75065;BME280;63646;49.110;9.140;2022-11-20T01:26:06;98915.59;;;20.79;59.46
75065;BME280;63646;49.110;9.140;2022-11-20T01:28:32;98923.56;;;20.79;59.27
75065;BME280;63646;49.110;9.140;2022-11-20T01:30:58;98920.06;;;20.79;59.28
75065;BME280;63646;49.110;9.140;2022-11-20T01:33:24;98913.09;;;20.78;59.19
75065;BME280;63646;49.110;9.140;2022-11-20T01:35:50;98920.06;;;20.79;59.23
75065;BME280;63646;49.110;9.140;2022-11-20T01:38:16;98919.25;;;20.78;59.35
75065;BME280;63646;49.110;9.140;2022-11-20T01:40:42;98907.78;;;20.78;59.65
75065;BME280;63646;49.110;9.140;2022-11-20T01:43:16;98907.78;;;20.78;59.65
75065;BME280;63646;49.110;9.140;2022-11-20T01:48:26;98900.66;;;20.78;59.23
75065;BME280;63646;49.110;9.140;2022-11-20T01:50:53;98896.34;;;20.77;59.75
75065;BME280;63646;49.110;9.140;2022-11-20T01:53:22;98893.81;;;20.75;59.31
75065;BME280;63646;49.110;9.140;2022-11-20T01:55:52;98900.97;;;20.75;59.30
75065;BME280;63646;49.110;9.140;2022-11-20T01:58:22;98894.66;;;20.76;59.66
75065;BME280;63646;49.110;9.140;2022-11-20T02:00:49;98900.81;;;20.77;59.58
75065;BME280;63646;49.110;9.140;2022-11-20T02:03:16;98899.97;;;20.76;59.33
75065;BME280;63646;49.110;9.140;2022-11-20T02:08:12;98901.97;;;20.74;59.31
75065;BME280;63646;49.110;9.140;2022-11-20T02:10:37;98893.00;;;20.75;59.32
75065;BME280;63646;49.110;9.140;2022-11-20T02:13:03;98894.00;;;20.74;59.38
75065;BME280;63646;49.110;9.140;2022-11-20T02:15:48;98894.00;;;20.74;59.31
75065;BME280;63646;49.110;9.140;2022-11-20T02:18:16;98895.81;;;20.73;59.21
75065;BME280;63646;49.110;9.140;2022-11-20T02:20:44;98895.66;;;20.75;58.96
75065;BME280;63646;49.110;9.140;2022-11-20T02:26:07;98900.97;;;20.75;58.95
75065;BME280;63646;49.110;9.140;2022-11-20T02:28:34;98895.81;;;20.73;59.19
75065;BME280;63646;49.110;9.140;2022-11-20T02:31:00;98895.00;;;20.73;59.25
75065;BME280;63646;49.110;9.140;2022-11-20T02:33:26;98898.59;;;20.72;59.34
75065;BME280;63646;49.110;9.140;2022-11-20T02:35:51;98901.25;;;20.72;59.34
75065;BME280;63646;49.110;9.140;2022-11-20T02:38:17;98893.28;;;20.72;59.24
75065;BME280;63646;49.110;9.140;2022-11-20T02:40:43;98898.47;;;20.73;59.41
75065;BME280;63646;49.110;9.140;2022-11-20T02:43:09;98891.47;;;20.72;59.15
75065;BME280;63646;49.110;9.140;2022-11-20T02:45:34;98886.16;;;20.72;59.23
75065;BME280;63646;49.110;9.140;2022-11-20T02:48:00;98888.81;;;20.72;58.84
75065;BME280;63646;49.110;9.140;2022-11-20T02:50:25;98888.00;;;20.72;58.99
75065;BME280;63646;49.110;9.140;2022-11-20T02:52:50;98877.53;;;20.70;59.20
75065;BME280;63646;49.110;9.140;2022-11-20T02:55:16;98881.84;;;20.71;59.63
75065;BME280;63646;49.110;9.140;2022-11-20T02:57:41;98876.53;;;20.71;59.08
75065;BME280;63646;49.110;9.140;2022-11-20T03:00:07;98874.06;;;20.70;59.40
75065;BME280;63646;49.110;9.140;2022-11-20T03:02:33;98868.75;;;20.70;59.11
75065;BME280;63646;49.110;9.140;2022-11-20T03:04:58;98868.75;;;20.70;58.97
75065;BME280;63646;49.110;9.140;2022-11-20T03:07:24;98874.19;;;20.68;59.31
75065;BME280;63646;49.110;9.140;2022-11-20T03:09:49;98865.38;;;20.68;59.35
75065;BME280;63646;49.110;9.140;2022-11-20T03:12:15;98866.22;;;20.68;59.55
75065;BME280;63646;49.110;9.140;2022-11-20T03:14:40;98864.41;;;20.69;59.28
75065;BME280;63646;49.110;9.140;2022-11-20T03:17:06;98860.09;;;20.68;59.42
75065;BME280;63646;49.110;9.140;2022-11-20T03:19:31;98854.78;;;20.68;58.90
75065;BME280;63646;49.110;9.140;2022-11-20T03:21:56;98857.59;;;20.66;59.24
75065;BME280;63646;49.110;9.140;2022-11-20T03:24:22;98861.75;;;20.69;59.30
75065;BME280;63646;49.110;9.140;2022-11-20T03:26:47;98857.59;;;20.66;59.15
75065;BME280;63646;49.110;9.140;2022-11-20T03:29:12;98855.75;;;20.67;59.31
75065;BME280;63646;49.110;9.140;2022-11-20T03:31:40;98847.09;;;20.65;59.04
75065;BME280;63646;49.110;9.140;2022-11-20T03:34:06;98847.81;;;20.67;59.45
75065;BME280;63646;49.110;9.140;2022-11-20T03:36:32;98847.81;;;20.67;59.23
75065;BME280;63646;49.110;9.140;2022-11-20T03:38:58;98847.81;;;20.67;59.04
75065;BME280;63646;49.110;9.140;2022-11-20T03:41:26;98849.63;;;20.66;58.77
75065;BME280;63646;49.110;9.140;2022-11-20T03:43:54;98848.81;;;20.66;59.28
75065;BME280;63646;49.110;9.140;2022-11-20T03:46:20;98852.41;;;20.65;59.51
75065;BME280;63646;49.110;9.140;2022-11-20T03:48:46;98851.44;;;20.66;58.85
75065;BME280;63646;49.110;9.140;2022-11-20T03:51:14;98852.28;;;20.66;59.29
75065;BME280;63646;49.110;9.140;2022-11-20T03:53:41;98855.91;;;20.65;59.11
75065;BME280;63646;49.110;9.140;2022-11-20T03:56:07;98855.06;;;20.65;59.10
75065;BME280;63646;49.110;9.140;2022-11-20T03:58:33;98845.44;;;20.64;59.46
75065;BME280;63646;49.110;9.140;2022-11-20T04:01:08;98844.44;;;20.65;59.31
75065;BME280;63646;49.110;9.140;2022-11-20T04:03:35;98851.59;;;20.64;59.21
75065;BME280;63646;49.110;9.140;2022-11-20T04:06:16;98851.75;;;20.63;59.35
75065;BME280;63646;49.110;9.140;2022-11-20T04:08:42;98848.09;;;20.64;59.26
75065;BME280;63646;49.110;9.140;2022-11-20T04:11:14;98847.28;;;20.63;59.00
75065;BME280;63646;49.110;9.140;2022-11-20T04:13:41;98847.28;;;20.63;59.02
75065;BME280;63646;49.110;9.140;2022-11-20T04:16:08;98842.97;;;20.62;59.20
75065;BME280;63646;49.110;9.140;2022-11-20T04:18:34;98843.09;;;20.61;59.11
75065;BME280;63646;49.110;9.140;2022-11-20T04:20:59;98842.09;;;20.62;59.40
75065;BME280;63646;49.110;9.140;2022-11-20T04:23:25;98836.97;;;20.60;59.01
75065;BME280;63646;49.110;9.140;2022-11-20T04:25:51;98837.78;;;20.61;59.13
75065;BME280;63646;49.110;9.140;2022-11-20T04:28:16;98835.13;;;20.61;59.08
75065;BME280;63646;49.110;9.140;2022-11-20T04:30:42;98830.81;;;20.60;58.96
75065;BME280;63646;49.110;9.140;2022-11-20T04:33:07;98834.31;;;20.60;59.29
75065;BME280;63646;49.110;9.140;2022-11-20T04:35:36;98832.47;;;20.61;59.21
75065;BME280;63646;49.110;9.140;2022-11-20T04:38:02;98828.00;;;20.61;59.35
75065;BME280;63646;49.110;9.140;2022-11-20T04:40:28;98827.16;;;20.61;59.44
75065;BME280;63646;49.110;9.140;2022-11-20T04:42:54;98832.66;;;20.59;59.37
75065;BME280;63646;49.110;9.140;2022-11-20T04:45:19;98830.81;;;20.60;59.47
75065;BME280;63646;49.110;9.140;2022-11-20T04:47:45;98830.00;;;20.59;59.58
75065;BME280;63646;49.110;9.140;2022-11-20T04:50:10;98833.47;;;20.60;59.35
75065;BME280;63646;49.110;9.140;2022-11-20T04:52:36;98828.16;;;20.60;59.10
75065;BME280;63646;49.110;9.140;2022-11-20T04:55:01;98825.50;;;20.60;59.57
75065;BME280;63646;49.110;9.140;2022-11-20T04:57:26;98827.47;;;20.58;59.69
75065;BME280;63646;49.110;9.140;2022-11-20T04:59:52;98822.16;;;20.58;59.16
75065;BME280;63646;49.110;9.140;2022-11-20T05:02:17;98822.16;;;20.58;59.25
75065;BME280;63646;49.110;9.140;2022-11-20T05:04:43;98812.38;;;20.58;59.58
75065;BME280;63646;49.110;9.140;2022-11-20T05:07:08;98813.25;;;20.59;59.39
75065;BME280;63646;49.110;9.140;2022-11-20T05:09:33;98816.72;;;20.59;59.40
75065;BME280;63646;49.110;9.140;2022-11-20T05:11:59;98811.53;;;20.58;59.05
75065;BME280;63646;49.110;9.140;2022-11-20T05:14:24;98819.50;;;20.58;59.28
75065;BME280;63646;49.110;9.140;2022-11-20T05:16:49;98824.00;;;20.57;58.87
75065;BME280;63646;49.110;9.140;2022-11-20T05:19:15;98820.50;;;20.57;59.22
75065;BME280;63646;49.110;9.140;2022-11-20T05:21:40;98822.16;;;20.58;58.67
75065;BME280;63646;49.110;9.140;2022-11-20T05:24:06;98818.69;;;20.57;58.90
75065;BME280;63646;49.110;9.140;2022-11-20T05:26:32;98816.84;;;20.58;59.22
75065;BME280;63646;49.110;9.140;2022-11-20T05:28:57;98823.16;;;20.57;59.19
75065;BME280;63646;49.110;9.140;2022-11-20T05:31:24;98815.19;;;20.57;59.02
75065;BME280;63646;49.110;9.140;2022-11-20T05:33:50;98823.16;;;20.57;59.11
75065;BME280;63646;49.110;9.140;2022-11-20T05:36:16;98821.50;;;20.56;59.27
75065;BME280;63646;49.110;9.140;2022-11-20T05:38:42;98825.16;;;20.55;59.82
75065;BME280;63646;49.110;9.140;2022-11-20T05:41:13;98821.81;;;20.53;59.66
75065;BME280;63646;49.110;9.140;2022-11-20T05:43:40;98821.50;;;20.56;59.74
75065;BME280;63646;49.110;9.140;2022-11-20T05:46:08;98830.28;;;20.56;59.42
75065;BME280;63646;49.110;9.140;2022-11-20T05:48:34;98813.53;;;20.56;59.87
75065;BME280;63646;49.110;9.140;2022-11-20T05:51:01;98820.50;;;20.57;60.01
75065;BME280;63646;49.110;9.140;2022-11-20T05:53:27;98819.50;;;20.58;59.96
75065;BME280;63646;49.110;9.140;2022-11-20T05:56:17;98824.69;;;20.59;59.93
75065;BME280;63646;49.110;9.140;2022-11-20T05:58:42;98815.03;;;20.58;60.27
75065;BME280;63646;49.110;9.140;2022-11-20T06:01:14;98816.84;;;20.58;60.52
75065;BME280;63646;49.110;9.140;2022-11-20T06:03:40;98821.19;;;20.59;60.23
75065;BME280;63646;49.110;9.140;2022-11-20T06:06:07;98817.56;;;20.60;60.30
75065;BME280;63646;49.110;9.140;2022-11-20T06:08:33;98813.25;;;20.59;60.16
75065;BME280;63646;49.110;9.140;2022-11-20T06:11:03;98813.06;;;20.60;60.19
75065;BME280;63646;49.110;9.140;2022-11-20T06:13:29;98813.25;;;20.59;60.45
75065;BME280;63646;49.110;9.140;2022-11-20T06:15:54;98820.19;;;20.60;60.21
75065;BME280;63646;49.110;9.140;2022-11-20T06:18:19;98812.25;;;20.60;60.04
75065;BME280;63646;49.110;9.140;2022-11-20T06:20:46;98814.91;;;20.60;60.17
75065;BME280;63646;49.110;9.140;2022-11-20T06:23:12;98824.53;;;20.61;59.90
75065;BME280;63646;49.110;9.140;2022-11-20T06:25:41;98834.47;;;20.59;59.98
75065;BME280;63646;49.110;9.140;2022-11-20T06:28:07;98829.16;;;20.59;59.96
75065;BME280;63646;49.110;9.140;2022-11-20T06:30:33;98823.84;;;20.59;60.22
75065;BME280;63646;49.110;9.140;2022-11-20T06:32:59;98826.50;;;20.59;59.79
75065;BME280;63646;49.110;9.140;2022-11-20T06:35:24;98829.16;;;20.59;59.99
75065;BME280;63646;49.110;9.140;2022-11-20T06:37:50;98826.50;;;20.59;59.90
75065;BME280;63646;49.110;9.140;2022-11-20T06:40:15;98822.03;;;20.59;59.58
75065;BME280;63646;49.110;9.140;2022-11-20T06:42:40;98831.66;;;20.60;60.11
75065;BME280;63646;49.110;9.140;2022-11-20T06:45:06;98821.03;;;20.60;60.04
75065;BME280;63646;49.110;9.140;2022-11-20T06:47:32;98829.16;;;20.59;59.74
75065;BME280;63646;49.110;9.140;2022-11-20T06:49:57;98834.47;;;20.59;59.75
75065;BME280;63646;49.110;9.140;2022-11-20T06:52:23;98839.63;;;20.60;59.57
75065;BME280;63646;49.110;9.140;2022-11-20T06:54:48;98837.78;;;20.61;59.57
75065;BME280;63646;49.110;9.140;2022-11-20T06:57:13;98841.44;;;20.60;59.68
75065;BME280;63646;49.110;9.140;2022-11-20T06:59:39;98843.09;;;20.61;59.79
75065;BME280;63646;49.110;9.140;2022-11-20T07:02:04;98839.44;;;20.62;60.00
75065;BME280;63646;49.110;9.140;2022-11-20T07:04:30;98847.41;;;20.62;59.76
75065;BME280;63646;49.110;9.140;2022-11-20T07:06:55;98848.09;;;20.64;59.47
75065;BME280;63646;49.110;9.140;2022-11-20T07:09:20;98845.44;;;20.64;59.60
75065;BME280;63646;49.110;9.140;2022-11-20T07:11:46;98842.78;;;20.64;59.67
75065;BME280;63646;49.110;9.140;2022-11-20T07:14:11;98846.16;;;20.66;59.48
75065;BME280;63646;49.110;9.140;2022-11-20T07:16:36;98838.63;;;20.61;59.09
75065;BME280;63646;49.110;9.140;2022-11-20T07:19:02;98842.78;;;20.64;59.48
75065;BME280;63646;49.110;9.140;2022-11-20T07:21:27;98848.09;;;20.64;59.14
75065;BME280;63646;49.110;9.140;2022-11-20T07:23:52;98849.75;;;20.65;59.05
75065;BME280;63646;49.110;9.140;2022-11-20T07:26:18;98848.81;;;20.66;59.25
75065;BME280;63646;49.110;9.140;2022-11-20T07:28:45;98856.75;;;20.66;59.42
75065;BME280;63646;49.110;9.140;2022-11-20T07:31:10;98859.41;;;20.66;59.19
75065;BME280;63646;49.110;9.140;2022-11-20T07:33:37;98858.41;;;20.67;59.54
75065;BME280;63646;49.110;9.140;2022-11-20T07:36:03;98847.81;;;20.67;59.63
75065;BME280;63646;49.110;9.140;2022-11-20T07:38:28;98856.44;;;20.69;59.74
75065;BME280;63646;49.110;9.140;2022-11-20T07:40:55;98851.97;;;20.69;59.82
75065;BME280;63646;49.110;9.140;2022-11-20T07:43:21;98851.13;;;20.69;59.82
75065;BME280;63646;49.110;9.140;2022-11-20T07:45:46;98859.78;;;20.71;60.02
75065;BME280;63646;49.110;9.140;2022-11-20T07:48:11;98854.31;;;20.72;59.58
75065;BME280;63646;49.110;9.140;2022-11-20T07:50:37;98847.69;;;20.77;59.49
75065;BME280;63646;49.110;9.140;2022-11-20T07:53:05;98855.22;;;20.81;59.01
75065;BME280;63646;49.110;9.140;2022-11-20T07:55:31;98847.63;;;20.86;59.03
75065;BME280;63646;49.110;9.140;2022-11-20T07:57:57;98851.94;;;20.87;59.29
75065;BME280;63646;49.110;9.140;2022-11-20T08:00:24;98861.28;;;20.91;59.31
75065;BME280;63646;49.110;9.140;2022-11-20T08:02:50;98855.44;;;20.88;60.45
75065;BME280;63646;49.110;9.140;2022-11-20T08:05:15;98859.75;;;20.89;59.80
75065;BME280;63646;49.110;9.140;2022-11-20T08:07:42;98860.59;;;20.89;61.19
75065;BME280;63646;49.110;9.140;2022-11-20T08:10:10;98866.59;;;20.91;60.61
75065;BME280;63646;49.110;9.140;2022-11-20T08:12:36;98871.03;;;20.91;60.60
75065;BME280;63646;49.110;9.140;2022-11-20T08:15:30;98871.75;;;20.93;60.59
75065;BME280;63646;49.110;9.140;2022-11-20T08:18:07;98879.72;;;20.93;60.14
75065;BME280;63646;49.110;9.140;2022-11-20T08:20:34;98880.53;;;20.93;60.32
75065;BME280;63646;49.110;9.140;2022-11-20T08:23:07;98877.72;;;20.95;60.01
75065;BME280;63646;49.110;9.140;2022-11-20T08:25:36;98875.91;;;20.95;59.82
75065;BME280;63646;49.110;9.140;2022-11-20T08:28:04;98871.44;;;20.96;60.00
75065;BME280;63646;49.110;9.140;2022-11-20T08:30:31;98872.09;;;20.98;60.18
75065;BME280;63646;49.110;9.140;2022-11-20T08:33:01;98872.78;;;21.00;60.11
75065;BME280;63646;49.110;9.140;2022-11-20T08:35:27;98866.94;;;20.96;60.07
75065;BME280;63646;49.110;9.140;2022-11-20T08:37:52;98876.28;;;21.01;60.27
75065;BME280;63646;49.110;9.140;2022-11-20T08:40:18;98868.31;;;21.01;60.00
75065;BME280;63646;49.110;9.140;2022-11-20T08:42:50;98875.97;;;21.04;60.07
75065;BME280;63646;49.110;9.140;2022-11-20T08:45:16;98874.97;;;21.05;59.55
75065;BME280;63646;49.110;9.140;2022-11-20T08:47:42;98885.47;;;21.06;59.55
75065;BME280;63646;49.110;9.140;2022-11-20T08:50:13;98877.50;;;21.06;59.99
75065;BME280;63646;49.110;9.140;2022-11-20T08:52:39;98888.94;;;21.07;59.97
75065;BME280;63646;49.110;9.140;2022-11-20T08:55:05;98887.13;;;21.07;59.92
75065;BME280;63646;49.110;9.140;2022-11-20T08:57:32;98879.28;;;21.06;59.67
75065;BME280;63646;49.110;9.140;2022-11-20T08:59:58;98883.63;;;21.07;59.97
75065;BME280;63646;49.110;9.140;2022-11-20T09:02:23;98880.97;;;21.07;59.39
75065;BME280;63646;49.110;9.140;2022-11-20T09:04:48;98886.28;;;21.07;59.57
75065;BME280;63646;49.110;9.140;2022-11-20T09:07:14;98879.28;;;21.06;59.66
75065;BME280;63646;49.110;9.140;2022-11-20T09:09:39;98881.81;;;21.07;59.19
75065;BME280;63646;49.110;9.140;2022-11-20T09:12:04;98893.25;;;21.08;59.55
75065;BME280;63646;49.110;9.140;2022-11-20T09:14:30;98880.81;;;21.08;59.22
75065;BME280;63646;49.110;9.140;2022-11-20T09:16:57;98885.13;;;21.09;59.38
75065;BME280;63646;49.110;9.140;2022-11-20T09:19:24;98891.44;;;21.08;59.55
75065;BME280;63646;49.110;9.140;2022-11-20T09:21:50;98896.56;;;21.10;59.60
75065;BME280;63646;49.110;9.140;2022-11-20T09:24:15;98893.09;;;21.09;59.42
75065;BME280;63646;49.110;9.140;2022-11-20T09:26:40;98892.13;;;21.10;59.35
75065;BME280;63646;49.110;9.140;2022-11-20T09:29:06;98897.44;;;21.10;59.11
75065;BME280;63646;49.110;9.140;2022-11-20T09:31:31;98908.06;;;21.10;59.42
75065;BME280;63646;49.110;9.140;2022-11-20T09:33:57;98901.59;;;21.13;59.29
75065;BME280;63646;49.110;9.140;2022-11-20T09:36:22;98908.72;;;21.12;59.66
75065;BME280;63646;49.110;9.140;2022-11-20T09:38:48;98904.25;;;21.13;59.54
75065;BME280;63646;49.110;9.140;2022-11-20T09:42:18;98907.72;;;21.13;59.33
75065;BME280;63646;49.110;9.140;2022-11-20T09:54:56;98915.03;;;21.11;58.78
75065;BME280;63646;49.110;9.140;2022-11-20T09:57:25;98913.50;;;21.09;59.25
75065;BME280;63646;49.110;9.140;2022-11-20T09:59:57;98902.88;;;21.09;59.02
75065;BME280;63646;49.110;9.140;2022-11-20T10:05:18;98909.19;;;21.08;59.23
75065;BME280;63646;49.110;9.140;2022-11-20T10:07:48;98911.16;;;21.06;59.16
75065;BME280;63646;49.110;9.140;2022-11-20T10:10:34;98903.19;;;21.06;58.64
75065;BME280;63646;49.110;9.140;2022-11-20T10:13:16;98906.84;;;21.05;58.76
75065;BME280;63646;49.110;9.140;2022-11-20T10:15:57;98910.34;;;21.05;58.84
75065;BME280;63646;49.110;9.140;2022-11-20T10:26:29;98902.53;;;21.04;58.65
75065;BME280;63646;49.110;9.140;2022-11-20T10:29:16;98904.50;;;21.02;58.66
75065;BME280;63646;49.110;9.140;2022-11-20T10:31:51;98916.81;;;21.03;58.50
75065;BME280;63646;49.110;9.140;2022-11-20T10:34:23;98914.16;;;21.03;58.42
75065;BME280;63646;49.110;9.140;2022-11-20T10:39:37;98910.81;;;21.01;58.97
75065;BME280;63646;49.110;9.140;2022-11-20T10:42:11;98913.47;;;21.01;58.31
75065;BME280;63646;49.110;9.140;2022-11-20T10:44:46;98917.13;;;20.99;58.40
75065;BME280;63646;49.110;9.140;2022-11-20T10:47:40;98907.63;;;20.97;58.75
75065;BME280;63646;49.110;9.140;2022-11-20T10:50:10;98907.63;;;20.97;58.37
75065;BME280;63646;49.110;9.140;2022-11-20T10:53:04;98919.06;;;20.97;58.44
75065;BME280;63646;49.110;9.140;2022-11-20T10:55:45;98905.97;;;20.96;57.87
75065;BME280;63646;49.110;9.140;2022-11-20T11:01:13;98906.78;;;20.96;58.26
75065;BME280;63646;49.110;9.140;2022-11-20T11:03:39;98905.97;;;20.96;58.07
75065;BME280;63646;49.110;9.140;2022-11-20T11:06:28;98903.44;;;20.94;58.51
75065;BME280;63646;49.110;9.140;2022-11-20T11:08:59;98907.78;;;20.95;58.55
75065;BME280;63646;49.110;9.140;2022-11-20T11:11:29;98905.97;;;20.96;58.16
75065;BME280;63646;49.110;9.140;2022-11-20T11:14:09;98899.81;;;20.95;58.39
75065;BME280;63646;49.110;9.140;2022-11-20T11:16:35;98892.81;;;20.94;58.31
75065;BME280;63646;49.110;9.140;2022-11-20T11:19:12;98898.13;;;20.94;58.61
75065;BME280;63646;49.110;9.140;2022-11-20T11:21:37;98899.94;;;20.94;57.91
75065;BME280;63646;49.110;9.140;2022-11-20T11:24:22;98880.53;;;20.93;58.18
75065;BME280;63646;49.110;9.140;2022-11-20T11:27:01;98883.19;;;20.93;57.93
75065;BME280;63646;49.110;9.140;2022-11-20T11:29:32;98874.41;;;20.93;58.12
75065;BME280;63646;49.110;9.140;2022-11-20T11:32:11;98874.56;;;20.91;57.76
75065;BME280;63646;49.110;9.140;2022-11-20T11:34:37;98867.41;;;20.92;57.84
75065;BME280;63646;49.110;9.140;2022-11-20T11:37:04;98877.22;;;20.91;57.93
75065;BME280;63646;49.110;9.140;2022-11-20T11:39:31;98870.75;;;20.94;58.17
75065;BME280;63646;49.110;9.140;2022-11-20T11:41:58;98857.63;;;20.92;57.91
75065;BME280;63646;49.110;9.140;2022-11-20T11:44:32;98855.63;;;20.94;57.98
75065;BME280;63646;49.110;9.140;2022-11-20T11:49:48;98842.22;;;20.96;57.85
75065;BME280;63646;49.110;9.140;2022-11-20T11:52:18;98840.22;;;20.98;57.52
75065;BME280;63646;49.110;9.140;2022-11-20T11:54:59;98834.91;;;20.98;57.83
75065;BME280;63646;49.110;9.140;2022-11-20T12:00:12;98839.41;;;20.97;57.61
75065;BME280;63646;49.110;9.140;2022-11-20T12:11:16;98806.06;;;21.03;58.80
75065;BME280;63646;49.110;9.140;2022-11-20T12:15:59;98819.19;;;21.05;58.25
75065;BME280;63646;49.110;9.140;2022-11-20T12:18:25;98835.81;;;21.07;59.00
75065;BME280;63646;49.110;9.140;2022-11-20T12:39:42;98822.94;;;21.20;58.63
75065;BME280;63646;49.110;9.140;2022-11-20T12:42:27;98829.59;;;21.24;58.62
75065;BME280;63646;49.110;9.140;2022-11-20T12:47:56;98822.78;;;21.21;58.51
75065;BME280;63646;49.110;9.140;2022-11-20T13:07:02;98808.69;;;21.21;58.40
75065;BME280;63646;49.110;9.140;2022-11-20T13:09:29;98819.63;;;21.18;58.43
75065;BME280;63646;49.110;9.140;2022-11-20T13:14:32;98815.97;;;21.19;58.47
75065;BME280;63646;49.110;9.140;2022-11-20T13:19:53;98815.25;;;21.17;58.45
75065;BME280;63646;49.110;9.140;2022-11-20T13:22:27;98806.47;;;21.16;58.25
75065;BME280;63646;49.110;9.140;2022-11-20T13:24:53;98801.16;;;21.16;58.07
75065;BME280;63646;49.110;9.140;2022-11-20T13:27:21;98807.28;;;21.17;58.00
75065;BME280;63646;49.110;9.140;2022-11-20T13:30:14;98807.00;;;21.20;57.66
75065;BME280;63646;49.110;9.140;2022-11-20T13:33:08;98792.88;;;21.19;57.53
75065;BME280;63646;49.110;9.140;2022-11-20T13:38:13;98784.25;;;21.17;57.98
75065;BME280;63646;49.110;9.140;2022-11-20T13:40:59;98778.94;;;21.17;57.61
75065;BME280;63646;49.110;9.140;2022-11-20T13:43:47;98780.22;;;21.13;58.09
75065;BME280;63646;49.110;9.140;2022-11-20T13:46:13;98793.34;;;21.15;57.87
75065;BME280;63646;49.110;9.140;2022-11-20T13:48:42;98790.00;;;21.13;57.78
75065;BME280;63646;49.110;9.140;2022-11-20T14:01:45;98777.91;;;21.10;58.07
75065;BME280;63646;49.110;9.140;2022-11-20T14:04:18;98783.34;;;21.09;57.89
75065;BME280;63646;49.110;9.140;2022-11-20T14:06:46;98783.34;;;21.09;58.10
75065;BME280;63646;49.110;9.140;2022-11-20T14:09:34;98779.03;;;21.08;57.80
75065;BME280;63646;49.110;9.140;2022-11-20T14:12:01;98786.00;;;21.09;58.06
75065;BME280;63646;49.110;9.140;2022-11-20T14:14:31;98787.00;;;21.08;57.71
75065;BME280;63646;49.110;9.140;2022-11-20T14:20:02;98775.56;;;21.07;57.79
75065;BME280;63646;49.110;9.140;2022-11-20T14:22:29;98775.56;;;21.07;57.61
75065;BME280;63646;49.110;9.140;2022-11-20T14:27:27;98789.66;;;21.08;58.09
75065;BME280;63646;49.110;9.140;2022-11-20T14:29:53;98784.53;;;21.06;57.72
75065;BME280;63646;49.110;9.140;2022-11-20T14:32:20;98780.03;;;21.07;57.91
75065;BME280;63646;49.110;9.140;2022-11-20T14:34:48;98785.34;;;21.07;57.65
75065;BME280;63646;49.110;9.140;2022-11-20T14:37:23;98785.34;;;21.07;57.81
75065;BME280;63646;49.110;9.140;2022-11-20T14:39:54;98766.06;;;21.05;57.74
75065;BME280;63646;49.110;9.140;2022-11-20T14:44:45;98760.75;;;21.05;57.74
75065;BME280;63646;49.110;9.140;2022-11-20T14:47:13;98759.09;;;21.04;57.71
75065;BME280;63646;49.110;9.140;2022-11-20T14:49:40;98754.59;;;21.04;57.31
75065;BME280;63646;49.110;9.140;2022-11-20T14:52:20;98751.97;;;21.04;56.40
75065;BME280;63646;49.110;9.140;2022-11-20T14:54:52;98757.09;;;21.06;56.73
75065;BME280;63646;49.110;9.140;2022-11-20T14:57:32;98754.13;;;21.09;56.30
75065;BME280;63646;49.110;9.140;2022-11-20T15:02:34;98742.03;;;21.06;55.61
75065;BME280;63646;49.110;9.140;2022-11-20T15:05:01;98748.16;;;21.07;55.85
75065;BME280;63646;49.110;9.140;2022-11-20T15:07:32;98753.47;;;21.07;56.12